Jeff Kindl — WDI5759 — position and weather

sailwx.info

Track history (hours):
 
Tides and Currents Weather Stations Pressure Air Temp Water Temp Dewpoint Dewpoint Depression Visibility Wind Speed Wind Dir Waves Ship Positions

Jeff Kindl

Owner: American Commercial Lines LLC, Jeffersonville, IN. More information available from US FCC via Universal Licensing System and Coast Guard Vessel Documentation Center.

Last reported at 2018-Jun-18 21:10 UTC. Time now 2018-Jun-24 11:09 UTC.
Position N 29°40' W 090°13'.

Length 27 m; draft 3 m.

Type: Tow > 200 m length. MMSI: 367711840.

Date/timePositionNaut miles runAvg speedWind from/ knotsBaromVisibWave heightAir tempDewpointWater temp
2018-Jun-18 21:10N 29°40' W 090°13'1 5.4
2018-Jun-18 20:58N 29°39' W 090°14'10 4.7
2018-Jun-18 18:52N 29°34' W 090°23'1 3.6
2018-Jun-18 18:30N 29°33' W 090°25'1 2.4
2018-Jun-18 18:00N 29°33' W 090°26'3 5.8
2018-Jun-18 17:30N 29°34' W 090°29'3 5.8
2018-Jun-18 17:00N 29°34' W 090°33'3 5.4
2018-Jun-18 16:30N 29°35' W 090°36'2 4.8
2018-Jun-18 16:00N 29°35' W 090°38'2 4.6
2018-Jun-18 15:30N 29°36' W 090°41'2 3.2
2018-Jun-18 14:59N 29°36' W 090°43'2 3.9
2018-Jun-18 14:30N 29°34' W 090°43'1 2.8
2018-Jun-18 14:00N 29°34' W 090°45'0 0.2
2018-Jun-18 13:30N 29°34' W 090°44'1 1.1
2018-Jun-18 13:00N 29°34' W 090°45'3 5.4
2018-Jun-18 12:30N 29°32' W 090°48'6 6.2
2018-Jun-18 11:31N 29°33' W 090°55'1 6.4
2018-Jun-18 11:19N 29°34' W 090°56'54 4.0
2018-Jun-17 21:56N 29°51' W 091°55'2 5.3
2018-Jun-17 21:30N 29°50' W 091°57'3 5.2
2018-Jun-17 21:00N 29°50' W 092°00'3 5.5
2018-Jun-17 20:30N 29°49' W 092°03'3 6.4
2018-Jun-17 20:00N 29°48' W 092°06'3 5.7
2018-Jun-17 19:30N 29°47' W 092°10'2 3.4
2018-Jun-17 19:00N 29°47' W 092°12'1 1.6
2018-Jun-17 18:29N 29°47' W 092°12'1 1.1
2018-Jun-17 18:00N 29°47' W 092°13'0 1.0
2018-Jun-17 17:30N 29°48' W 092°14'0 0.1
2018-Jun-17 17:00N 29°48' W 092°14'0 1.0
2018-Jun-17 16:30N 29°48' W 092°14'0 0.7
2018-Jun-17 16:00N 29°48' W 092°14'1 1.2
2018-Jun-17 15:30N 29°48' W 092°15'1 2.3
2018-Jun-17 15:00N 29°49' W 092°16'2 4.7
2018-Jun-17 14:30N 29°50' W 092°18'2 4.8
2018-Jun-17 14:00N 29°51' W 092°21'34 4.7
2018-Jun-17 06:44N 29°56' W 092°60'1 4.7
2018-Jun-17 06:27N 29°56' W 093°01'2 4.6
2018-Jun-17 05:59N 29°56' W 093°04'2 4.0
2018-Jun-17 05:29N 29°56' W 093°06'2 3.0
2018-Jun-17 04:54N 29°56' W 093°08'2 4.1
2018-Jun-17 04:30N 29°57' W 093°10'2 4.2
2018-Jun-17 04:00N 29°58' W 093°11'2 3.3
2018-Jun-17 03:30N 29°59' W 093°13'2 3.8
2018-Jun-17 03:00N 30°01' W 093°14'1 2.9
2018-Jun-17 02:30N 30°02' W 093°15'2 3.4
2018-Jun-17 02:00N 30°04' W 093°16'2 3.1
2018-Jun-17 01:30N 30°05' W 093°17'1 1.8
2018-Jun-17 01:00N 30°05' W 093°18'0 0.3
2018-Jun-17 00:30N 30°05' W 093°18'1 1.4
2018-Jun-17 00:00N 30°06' W 093°18'0 0.0
2018-Jun-16 23:29N 30°06' W 093°18'0 0.0
2018-Jun-16 23:00N 30°06' W 093°18'0 0.0
2018-Jun-16 22:30N 30°06' W 093°18'0 0.0
2018-Jun-16 22:00N 30°06' W 093°18'0 0.0
2018-Jun-16 21:30N 30°06' W 093°18'0 0.0
2018-Jun-16 21:00N 30°06' W 093°18'0 0.0
2018-Jun-16 20:30N 30°06' W 093°18'0 0.0
2018-Jun-16 20:00N 30°06' W 093°18'0 0.0
2018-Jun-16 19:30N 30°06' W 093°18'0 0.0
2018-Jun-16 19:00N 30°06' W 093°18'0 0.0
2018-Jun-16 18:28N 30°06' W 093°18'0 0.0
2018-Jun-16 18:00N 30°06' W 093°18'0 0.0
2018-Jun-16 17:30N 30°06' W 093°18'0 0.0
2018-Jun-16 17:00N 30°06' W 093°18'0 0.0
2018-Jun-16 16:30N 30°06' W 093°18'0 0.1
2018-Jun-16 16:00N 30°06' W 093°18'0 0.1
2018-Jun-16 15:29N 30°06' W 093°18'0 0.0
2018-Jun-16 15:00N 30°06' W 093°18'0 0.0
2018-Jun-16 14:30N 30°06' W 093°18'0 0.0
2018-Jun-16 14:00N 30°06' W 093°18'0 0.0
2018-Jun-16 13:30N 30°06' W 093°18'0 0.0
2018-Jun-16 13:00N 30°06' W 093°18'0 0.0
2018-Jun-16 12:30N 30°06' W 093°18'0 0.0
2018-Jun-16 12:00N 30°06' W 093°18'0 0.0
2018-Jun-16 11:30N 30°06' W 093°18'0 0.0
2018-Jun-16 11:00N 30°06' W 093°18'0 0.0
2018-Jun-16 10:30N 30°06' W 093°18'0 0.1
2018-Jun-16 10:00N 30°06' W 093°18'0 0.0
2018-Jun-16 09:30N 30°06' W 093°18'0 0.0
2018-Jun-16 09:00N 30°06' W 093°18'0 0.0
2018-Jun-16 08:30N 30°06' W 093°18'0 0.6
2018-Jun-16 08:00N 30°06' W 093°19'1 2.3
2018-Jun-16 07:30N 30°05' W 093°20'1 2.3
2018-Jun-16 07:00N 30°04' W 093°20'2 3.3
2018-Jun-16 06:30N 30°04' W 093°22'1 2.0
2018-Jun-16 06:00N 30°04' W 093°23'0 0.1
2018-Jun-16 05:30N 30°04' W 093°23'0 0.0
2018-Jun-16 05:00N 30°04' W 093°23'0 0.0
2018-Jun-16 04:30N 30°04' W 093°23'0 0.0
2018-Jun-16 04:00N 30°04' W 093°23'0 0.0
2018-Jun-16 03:30N 30°04' W 093°23'0 0.2
2018-Jun-16 03:00N 30°04' W 093°23'2 3.3
2018-Jun-16 02:30N 30°04' W 093°25'3 5.3
2018-Jun-16 02:00N 30°04' W 093°28'3 5.3
2018-Jun-16 01:30N 30°04' W 093°31'3 5.2
2018-Jun-16 00:59N 30°04' W 093°35'3 5.5
2018-Jun-16 00:30N 30°04' W 093°38'3 6.0
2018-Jun-16 00:00N 30°04' W 093°41'3 5.6
2018-Jun-15 23:30N 30°03' W 093°44'3 5.7
2018-Jun-15 23:00N 30°00' W 093°46'3 6.2
2018-Jun-15 22:30N 29°59' W 093°49'3 5.1
2018-Jun-15 22:00N 29°57' W 093°52'4 7.2
2018-Jun-15 21:30N 29°54' W 093°54'3 6.5
2018-Jun-15 21:00N 29°52' W 093°56'3 5.9
2018-Jun-15 20:30N 29°49' W 093°58'2 4.5
2018-Jun-15 20:00N 29°48' W 094°00'3 5.3
2018-Jun-15 19:30N 29°46' W 094°02'3 5.1
2018-Jun-15 19:00N 29°45' W 094°05'3 5.5
2018-Jun-15 18:30N 29°43' W 094°07'3 5.4
2018-Jun-15 18:00N 29°41' W 094°10'3 5.0
2018-Jun-15 17:30N 29°41' W 094°12'3 5.3
2018-Jun-15 17:00N 29°39' W 094°15'26 5.1
2018-Jun-15 11:57N 29°27' W 094°41'3 5.7
2018-Jun-15 11:30N 29°25' W 094°43'3 5.1
2018-Jun-15 11:00N 29°24' W 094°46'3 5.2
2018-Jun-15 10:30N 29°22' W 094°48'14 6.3
2018-Jun-15 08:20N 29°34' W 094°56'3 7.4
2018-Jun-15 07:58N 29°37' W 094°57'5 8.0
2018-Jun-15 07:22N 29°41' W 094°59'3 0.9
2018-Jun-15 04:38N 29°43' W 095°01'1 6.5
2018-Jun-15 04:29N 29°42' W 095°01'3 6.4
2018-Jun-15 03:59N 29°40' W 094°58'14 7.5
2018-Jun-15 02:05N 29°27' W 094°51'1 7.1
2018-Jun-15 01:53N 29°26' W 094°50'3 6.9
2018-Jun-15 01:28N 29°23' W 094°49'2 3.4
2018-Jun-15 01:00N 29°22' W 094°50'3 6.0
2018-Jun-15 00:30N 29°22' W 094°53'1 1.6
2018-Jun-15 00:00N 29°22' W 094°54'0 0.0
2018-Jun-14 23:30N 29°22' W 094°54'0 0.0
2018-Jun-14 22:58N 29°22' W 094°54'0 0.0
2018-Jun-14 22:30N 29°22' W 094°54'0 0.0
2018-Jun-14 22:00N 29°22' W 094°54'0 0.0
2018-Jun-14 21:30N 29°22' W 094°54'0 0.0
2018-Jun-14 21:00N 29°22' W 094°54'0 0.0
2018-Jun-14 20:30N 29°22' W 094°54'0 0.0
2018-Jun-14 20:00N 29°22' W 094°54'0 0.0
2018-Jun-14 19:30N 29°22' W 094°54'0 0.2
2018-Jun-14 19:00N 29°22' W 094°54'0 0.0
2018-Jun-14 18:30N 29°22' W 094°54'0 0.0
2018-Jun-14 18:00N 29°22' W 094°54'0 0.0
2018-Jun-14 17:30N 29°22' W 094°54'0 0.0
2018-Jun-14 17:00N 29°22' W 094°54'0 0.0
2018-Jun-14 16:30N 29°22' W 094°54'0 0.0
2018-Jun-14 16:00N 29°22' W 094°54'0 0.0
2018-Jun-14 15:30N 29°22' W 094°54'0 0.0
2018-Jun-14 15:00N 29°22' W 094°54'0 0.0
2018-Jun-14 14:30N 29°22' W 094°54'0 0.0
2018-Jun-14 14:00N 29°22' W 094°54'0 0.0
2018-Jun-14 13:30N 29°22' W 094°54'0 0.2
2018-Jun-14 13:00N 29°22' W 094°54'0 0.6
2018-Jun-14 12:30N 29°22' W 094°55'2 4.6
2018-Jun-14 11:59N 29°23' W 094°52'3 6.0
2018-Jun-14 11:30N 29°22' W 094°49'14 6.5
2018-Jun-14 09:22N 29°34' W 094°56'3 8.5
2018-Jun-14 09:00N 29°37' W 094°57'4 8.8
2018-Jun-14 08:30N 29°41' W 094°59'8 5.4
2018-Jun-14 07:01N 29°47' W 095°06'0 0.6
2018-Jun-14 06:59N 29°47' W 095°06'1 2.0
2018-Jun-14 06:30N 29°46' W 095°06'  
2018-Jun-10 06:49N 29°42' W 094°60'2 7.5
2018-Jun-10 06:29N 29°39' W 094°58'17 7.5
2018-Jun-10 04:14N 29°25' W 094°49'2 7.4
2018-Jun-10 03:59N 29°23' W 094°48'2 3.6
2018-Jun-10 03:31N 29°22' W 094°50'2 4.6
2018-Jun-10 03:01N 29°23' W 094°53'2 3.8
2018-Jun-10 02:30N 29°22' W 094°55'13 0.7
2018-Jun-09 09:18N 29°35' W 094°56'2 8.2
2018-Jun-09 09:00N 29°37' W 094°57'4 8.1
2018-Jun-09 08:27N 29°41' W 094°59'8 3.6
2018-Jun-09 06:14N 29°46' W 095°06'  
Track history (hours):
 
Tides and Currents Weather Stations Pressure Air Temp Water Temp Dewpoint Dewpoint Depression Visibility Wind Speed Wind Dir Waves Ship Positions

Jeff Kindl

Owner: American Commercial Lines LLC, Jeffersonville, IN. More information available from US FCC via Universal Licensing System and Coast Guard Vessel Documentation Center.

Last reported at 2018-Jun-18 21:10 UTC. Time now 2018-Jun-24 11:09 UTC.
Position N 29°40' W 090°13'.

Length 27 m; draft 3 m.

Type: Tow > 200 m length. MMSI: 367711840.

Date/timePositionNaut miles runAvg speedWind from/ knotsBaromVisibWave heightAir tempDewpointWater temp
2018-Jun-18 21:10N 29°40' W 090°13'1 5.4
2018-Jun-18 20:58N 29°39' W 090°14'10 4.7
2018-Jun-18 18:52N 29°34' W 090°23'1 3.6
2018-Jun-18 18:30N 29°33' W 090°25'1 2.4
2018-Jun-18 18:00N 29°33' W 090°26'3 5.8
2018-Jun-18 17:30N 29°34' W 090°29'3 5.8
2018-Jun-18 17:00N 29°34' W 090°33'3 5.4
2018-Jun-18 16:30N 29°35' W 090°36'2 4.8
2018-Jun-18 16:00N 29°35' W 090°38'2 4.6
2018-Jun-18 15:30N 29°36' W 090°41'2 3.2
2018-Jun-18 14:59N 29°36' W 090°43'2 3.9
2018-Jun-18 14:30N 29°34' W 090°43'1 2.8
2018-Jun-18 14:00N 29°34' W 090°45'0 0.2
2018-Jun-18 13:30N 29°34' W 090°44'1 1.1
2018-Jun-18 13:00N 29°34' W 090°45'3 5.4
2018-Jun-18 12:30N 29°32' W 090°48'6 6.2
2018-Jun-18 11:31N 29°33' W 090°55'1 6.4
2018-Jun-18 11:19N 29°34' W 090°56'54 4.0
2018-Jun-17 21:56N 29°51' W 091°55'2 5.3
2018-Jun-17 21:30N 29°50' W 091°57'3 5.2
2018-Jun-17 21:00N 29°50' W 092°00'3 5.5
2018-Jun-17 20:30N 29°49' W 092°03'3 6.4
2018-Jun-17 20:00N 29°48' W 092°06'3 5.7
2018-Jun-17 19:30N 29°47' W 092°10'2 3.4
2018-Jun-17 19:00N 29°47' W 092°12'1 1.6
2018-Jun-17 18:29N 29°47' W 092°12'1 1.1
2018-Jun-17 18:00N 29°47' W 092°13'0 1.0
2018-Jun-17 17:30N 29°48' W 092°14'0 0.1
2018-Jun-17 17:00N 29°48' W 092°14'0 1.0
2018-Jun-17 16:30N 29°48' W 092°14'0 0.7
2018-Jun-17 16:00N 29°48' W 092°14'1 1.2
2018-Jun-17 15:30N 29°48' W 092°15'1 2.3
2018-Jun-17 15:00N 29°49' W 092°16'2 4.7
2018-Jun-17 14:30N 29°50' W 092°18'2 4.8
2018-Jun-17 14:00N 29°51' W 092°21'34 4.7
2018-Jun-17 06:44N 29°56' W 092°60'1 4.7
2018-Jun-17 06:27N 29°56' W 093°01'2 4.6
2018-Jun-17 05:59N 29°56' W 093°04'2 4.0
2018-Jun-17 05:29N 29°56' W 093°06'2 3.0
2018-Jun-17 04:54N 29°56' W 093°08'2 4.1
2018-Jun-17 04:30N 29°57' W 093°10'2 4.2
2018-Jun-17 04:00N 29°58' W 093°11'2 3.3
2018-Jun-17 03:30N 29°59' W 093°13'2 3.8
2018-Jun-17 03:00N 30°01' W 093°14'1 2.9
2018-Jun-17 02:30N 30°02' W 093°15'2 3.4
2018-Jun-17 02:00N 30°04' W 093°16'2 3.1
2018-Jun-17 01:30N 30°05' W 093°17'1 1.8
2018-Jun-17 01:00N 30°05' W 093°18'0 0.3
2018-Jun-17 00:30N 30°05' W 093°18'1 1.4
2018-Jun-17 00:00N 30°06' W 093°18'0 0.0
2018-Jun-16 23:29N 30°06' W 093°18'0 0.0
2018-Jun-16 23:00N 30°06' W 093°18'0 0.0
2018-Jun-16 22:30N 30°06' W 093°18'0 0.0
2018-Jun-16 22:00N 30°06' W 093°18'0 0.0
2018-Jun-16 21:30N 30°06' W 093°18'0 0.0
2018-Jun-16 21:00N 30°06' W 093°18'0 0.0
2018-Jun-16 20:30N 30°06' W 093°18'0 0.0
2018-Jun-16 20:00N 30°06' W 093°18'0 0.0
2018-Jun-16 19:30N 30°06' W 093°18'0 0.0
2018-Jun-16 19:00N 30°06' W 093°18'0 0.0
2018-Jun-16 18:28N 30°06' W 093°18'0 0.0
2018-Jun-16 18:00N 30°06' W 093°18'0 0.0
2018-Jun-16 17:30N 30°06' W 093°18'0 0.0
2018-Jun-16 17:00N 30°06' W 093°18'0 0.0
2018-Jun-16 16:30N 30°06' W 093°18'0 0.1
2018-Jun-16 16:00N 30°06' W 093°18'0 0.1
2018-Jun-16 15:29N 30°06' W 093°18'0 0.0
2018-Jun-16 15:00N 30°06' W 093°18'0 0.0
2018-Jun-16 14:30N 30°06' W 093°18'0 0.0
2018-Jun-16 14:00N 30°06' W 093°18'0 0.0
2018-Jun-16 13:30N 30°06' W 093°18'0 0.0
2018-Jun-16 13:00N 30°06' W 093°18'0 0.0
2018-Jun-16 12:30N 30°06' W 093°18'0 0.0
2018-Jun-16 12:00N 30°06' W 093°18'0 0.0
2018-Jun-16 11:30N 30°06' W 093°18'0 0.0
2018-Jun-16 11:00N 30°06' W 093°18'0 0.0
2018-Jun-16 10:30N 30°06' W 093°18'0 0.1
2018-Jun-16 10:00N 30°06' W 093°18'0 0.0
2018-Jun-16 09:30N 30°06' W 093°18'0 0.0
2018-Jun-16 09:00N 30°06' W 093°18'0 0.0
2018-Jun-16 08:30N 30°06' W 093°18'0 0.6
2018-Jun-16 08:00N 30°06' W 093°19'1 2.3
2018-Jun-16 07:30N 30°05' W 093°20'1 2.3
2018-Jun-16 07:00N 30°04' W 093°20'2 3.3
2018-Jun-16 06:30N 30°04' W 093°22'1 2.0
2018-Jun-16 06:00N 30°04' W 093°23'0 0.1
2018-Jun-16 05:30N 30°04' W 093°23'0 0.0
2018-Jun-16 05:00N 30°04' W 093°23'0 0.0
2018-Jun-16 04:30N 30°04' W 093°23'0 0.0
2018-Jun-16 04:00N 30°04' W 093°23'0 0.0
2018-Jun-16 03:30N 30°04' W 093°23'0 0.2
2018-Jun-16 03:00N 30°04' W 093°23'2 3.3
2018-Jun-16 02:30N 30°04' W 093°25'3 5.3
2018-Jun-16 02:00N 30°04' W 093°28'3 5.3
2018-Jun-16 01:30N 30°04' W 093°31'3 5.2
2018-Jun-16 00:59N 30°04' W 093°35'3 5.5
2018-Jun-16 00:30N 30°04' W 093°38'3 6.0
2018-Jun-16 00:00N 30°04' W 093°41'3 5.6
2018-Jun-15 23:30N 30°03' W 093°44'3 5.7
2018-Jun-15 23:00N 30°00' W 093°46'3 6.2
2018-Jun-15 22:30N 29°59' W 093°49'3 5.1
2018-Jun-15 22:00N 29°57' W 093°52'4 7.2
2018-Jun-15 21:30N 29°54' W 093°54'3 6.5
2018-Jun-15 21:00N 29°52' W 093°56'3 5.9
2018-Jun-15 20:30N 29°49' W 093°58'2 4.5
2018-Jun-15 20:00N 29°48' W 094°00'3 5.3
2018-Jun-15 19:30N 29°46' W 094°02'3 5.1
2018-Jun-15 19:00N 29°45' W 094°05'3 5.5
2018-Jun-15 18:30N 29°43' W 094°07'3 5.4
2018-Jun-15 18:00N 29°41' W 094°10'3 5.0
2018-Jun-15 17:30N 29°41' W 094°12'3 5.3
2018-Jun-15 17:00N 29°39' W 094°15'26 5.1
2018-Jun-15 11:57N 29°27' W 094°41'3 5.7
2018-Jun-15 11:30N 29°25' W 094°43'3 5.1
2018-Jun-15 11:00N 29°24' W 094°46'3 5.2
2018-Jun-15 10:30N 29°22' W 094°48'14 6.3
2018-Jun-15 08:20N 29°34' W 094°56'3 7.4
2018-Jun-15 07:58N 29°37' W 094°57'5 8.0
2018-Jun-15 07:22N 29°41' W 094°59'3 0.9
2018-Jun-15 04:38N 29°43' W 095°01'1 6.5
2018-Jun-15 04:29N 29°42' W 095°01'3 6.4
2018-Jun-15 03:59N 29°40' W 094°58'14 7.5
2018-Jun-15 02:05N 29°27' W 094°51'1 7.1
2018-Jun-15 01:53N 29°26' W 094°50'3 6.9
2018-Jun-15 01:28N 29°23' W 094°49'2 3.4
2018-Jun-15 01:00N 29°22' W 094°50'3 6.0
2018-Jun-15 00:30N 29°22' W 094°53'1 1.6
2018-Jun-15 00:00N 29°22' W 094°54'0 0.0
2018-Jun-14 23:30N 29°22' W 094°54'0 0.0
2018-Jun-14 22:58N 29°22' W 094°54'0 0.0
2018-Jun-14 22:30N 29°22' W 094°54'0 0.0
2018-Jun-14 22:00N 29°22' W 094°54'0 0.0
2018-Jun-14 21:30N 29°22' W 094°54'0 0.0
2018-Jun-14 21:00N 29°22' W 094°54'0 0.0
2018-Jun-14 20:30N 29°22' W 094°54'0 0.0
2018-Jun-14 20:00N 29°22' W 094°54'0 0.0
2018-Jun-14 19:30N 29°22' W 094°54'0 0.2
2018-Jun-14 19:00N 29°22' W 094°54'0 0.0
2018-Jun-14 18:30N 29°22' W 094°54'0 0.0
2018-Jun-14 18:00N 29°22' W 094°54'0 0.0
2018-Jun-14 17:30N 29°22' W 094°54'0 0.0
2018-Jun-14 17:00N 29°22' W 094°54'0 0.0
2018-Jun-14 16:30N 29°22' W 094°54'0 0.0
2018-Jun-14 16:00N 29°22' W 094°54'0 0.0
2018-Jun-14 15:30N 29°22' W 094°54'0 0.0
2018-Jun-14 15:00N 29°22' W 094°54'0 0.0
2018-Jun-14 14:30N 29°22' W 094°54'0 0.0
2018-Jun-14 14:00N 29°22' W 094°54'0 0.0
2018-Jun-14 13:30N 29°22' W 094°54'0 0.2
2018-Jun-14 13:00N 29°22' W 094°54'0 0.6
2018-Jun-14 12:30N 29°22' W 094°55'2 4.6
2018-Jun-14 11:59N 29°23' W 094°52'3 6.0
2018-Jun-14 11:30N 29°22' W 094°49'14 6.5
2018-Jun-14 09:22N 29°34' W 094°56'3 8.5
2018-Jun-14 09:00N 29°37' W 094°57'4 8.8
2018-Jun-14 08:30N 29°41' W 094°59'8 5.4
2018-Jun-14 07:01N 29°47' W 095°06'0 0.6
2018-Jun-14 06:59N 29°47' W 095°06'1 2.0
2018-Jun-14 06:30N 29°46' W 095°06'  
2018-Jun-10 06:49N 29°42' W 094°60'2 7.5
2018-Jun-10 06:29N 29°39' W 094°58'17 7.5
2018-Jun-10 04:14N 29°25' W 094°49'2 7.4
2018-Jun-10 03:59N 29°23' W 094°48'2 3.6
2018-Jun-10 03:31N 29°22' W 094°50'2 4.6
2018-Jun-10 03:01N 29°23' W 094°53'2 3.8
2018-Jun-10 02:30N 29°22' W 094°55'13 0.7
2018-Jun-09 09:18N 29°35' W 094°56'2 8.2
2018-Jun-09 09:00N 29°37' W 094°57'4 8.1
2018-Jun-09 08:27N 29°41' W 094°59'8 3.6
2018-Jun-09 06:14N 29°46' W 095°06'  

Dump ship's entire track history